createdAt,value
2023-02-25T00:02:06.126Z,2.54
2023-02-25T00:04:34.535Z,2.53
2023-02-25T00:07:03.529Z,2.52
2023-02-25T00:09:31.759Z,2.50
2023-02-25T00:11:59.972Z,2.50
2023-02-25T00:14:28.834Z,2.50
2023-02-25T00:16:57.529Z,2.51
2023-02-25T00:19:26.905Z,2.53
2023-02-25T00:21:55.357Z,2.55
2023-02-25T00:24:23.881Z,2.57
2023-02-25T00:26:52.122Z,2.57
2023-02-25T00:29:20.166Z,2.57
2023-02-25T00:31:48.523Z,2.57
2023-02-25T00:34:18.077Z,2.58
2023-02-25T00:36:46.284Z,2.57
2023-02-25T00:39:14.652Z,2.56
2023-02-25T00:41:43.202Z,2.56
2023-02-25T00:44:13.172Z,2.55
2023-02-25T00:46:41.567Z,2.55
2023-02-25T00:49:12.058Z,2.55
2023-02-25T00:51:41.553Z,2.55
2023-02-25T00:54:09.683Z,2.55
2023-02-25T00:56:37.736Z,2.55
2023-02-25T00:59:05.888Z,2.56
2023-02-25T01:01:34.405Z,2.56
2023-02-25T01:04:02.730Z,2.55
2023-02-25T01:06:33.770Z,2.56
2023-02-25T01:09:04.080Z,2.55
2023-02-25T01:11:35.207Z,2.56
2023-02-25T01:14:14.568Z,2.55
2023-02-25T01:16:44.553Z,2.54
2023-02-25T01:19:16.309Z,2.54
2023-02-25T01:21:46.868Z,2.51
2023-02-25T01:24:21.178Z,2.54
2023-02-25T01:26:52.637Z,2.48
2023-02-25T01:29:24.056Z,2.46
2023-02-25T01:31:58.112Z,2.43
2023-02-25T01:34:28.988Z,2.41
2023-02-25T01:36:58.552Z,2.40
2023-02-25T01:39:28.350Z,2.38
2023-02-25T01:41:57.999Z,2.37
2023-02-25T01:44:33.736Z,2.35
2023-02-25T01:47:02.143Z,2.35
2023-02-25T01:49:41.976Z,2.34
2023-02-25T01:52:15.467Z,2.32
2023-02-25T01:54:47.266Z,2.31
2023-02-25T01:57:18.937Z,2.30
2023-02-25T01:59:49.176Z,2.27
2023-02-25T02:02:37.870Z,2.25
2023-02-25T02:05:07.555Z,2.21
2023-02-25T02:07:35.702Z,2.19
2023-02-25T02:10:04.697Z,2.19
2023-02-25T02:12:38.915Z,2.16
2023-02-25T02:15:11.722Z,2.15
2023-02-25T02:17:47.089Z,2.15
2023-02-25T02:20:23.234Z,2.14
2023-02-25T02:23:06.939Z,2.14
2023-02-25T02:25:57.125Z,2.14
2023-02-25T02:28:40.153Z,2.14
2023-02-25T02:31:17.576Z,2.14
2023-02-25T02:36:54.659Z,2.14
2023-02-25T02:39:35.074Z,2.15
2023-02-25T02:42:37.967Z,2.16
2023-02-25T02:45:18.143Z,2.14
2023-02-25T02:47:52.229Z,2.14
2023-02-25T02:50:34.044Z,2.13
2023-02-25T02:53:09.828Z,2.12
2023-02-25T02:55:43.658Z,2.11
2023-02-25T02:58:38.098Z,2.11
2023-02-25T03:01:13.992Z,2.11
2023-02-25T03:03:46.968Z,2.11
2023-02-25T03:06:20.083Z,2.12
2023-02-25T03:08:56.100Z,2.13
2023-02-25T03:11:25.124Z,2.12
2023-02-25T03:13:54.635Z,2.13
2023-02-25T03:16:38.477Z,2.11
2023-02-25T03:19:21.505Z,2.14
2023-02-25T03:22:02.397Z,2.14
2023-02-25T03:24:41.773Z,2.05
2023-02-25T03:27:35.713Z,2.02
2023-02-25T03:30:32.799Z,1.99
2023-02-25T03:33:48.174Z,1.95
2023-02-25T03:36:28.814Z,1.91
2023-02-25T03:39:03.642Z,1.84
2023-02-25T03:41:37.571Z,1.77
2023-02-25T03:44:12.589Z,1.71
2023-02-25T03:46:44.704Z,1.63
2023-02-25T03:49:19.322Z,1.59
2023-02-25T03:51:49.872Z,1.54
2023-02-25T03:54:18.116Z,1.49
2023-02-25T03:56:49.610Z,1.45
2023-02-25T03:59:19.696Z,1.40
2023-02-25T04:05:28.479Z,1.35
2023-02-25T04:07:59.692Z,1.35
2023-02-25T04:10:31.084Z,1.32
2023-02-25T04:12:59.171Z,1.33
2023-02-25T04:15:28.999Z,1.32
2023-02-25T04:17:57.221Z,1.33
2023-02-25T04:20:29.842Z,1.34
2023-02-25T04:22:57.981Z,1.33
2023-02-25T04:25:26.870Z,1.30
2023-02-25T04:27:55.189Z,1.27
2023-02-25T04:34:38.348Z,1.11
2023-02-25T04:37:06.801Z,1.02
2023-02-25T04:39:34.813Z,0.95
2023-02-25T04:42:03.067Z,0.89
2023-02-25T04:44:31.242Z,0.85
2023-02-25T04:46:59.675Z,0.84
2023-02-25T04:49:27.910Z,0.81
2023-02-25T04:51:56.003Z,0.79
2023-02-25T04:54:24.805Z,0.79
2023-02-25T04:56:52.900Z,0.78
2023-02-25T04:59:21.247Z,0.81
2023-02-25T05:01:49.498Z,0.82
2023-02-25T05:04:17.622Z,0.83
2023-02-25T05:06:45.640Z,0.81
2023-02-25T05:09:13.756Z,0.78
2023-02-25T05:11:42.793Z,0.78
2023-02-25T05:14:10.962Z,0.77
2023-02-25T05:16:39.157Z,0.78
2023-02-25T05:19:07.320Z,0.79
2023-02-25T05:21:35.404Z,0.79
2023-02-25T05:24:04.067Z,0.80
2023-02-25T05:26:32.195Z,0.81
2023-02-25T05:29:00.266Z,0.77
2023-02-25T05:31:28.496Z,0.73
2023-02-25T05:33:56.838Z,0.73
2023-02-25T05:36:28.117Z,0.72
2023-02-25T05:39:02.924Z,0.72
2023-02-25T05:41:31.171Z,0.74
2023-02-25T05:43:59.240Z,0.76
2023-02-25T05:46:28.167Z,0.76
2023-02-25T05:49:21.701Z,0.77
2023-02-25T05:51:50.606Z,0.79
2023-02-25T05:54:18.666Z,0.81
2023-02-25T05:56:46.713Z,0.82
2023-02-25T05:59:14.788Z,0.84
2023-02-25T06:01:42.919Z,0.86
2023-02-25T06:04:11.138Z,0.89
2023-02-25T06:06:39.183Z,0.91
2023-02-25T06:09:09.582Z,0.96
2023-02-25T06:11:37.759Z,0.95
2023-02-25T06:14:05.806Z,0.97
2023-02-25T06:16:34.037Z,1.00
2023-02-25T06:19:03.518Z,1.01
2023-02-25T06:21:31.646Z,1.03
2023-02-25T06:24:01.477Z,1.08
2023-02-25T06:26:30.175Z,1.09
2023-02-25T06:28:58.276Z,1.11
2023-02-25T06:31:26.732Z,1.13
2023-02-25T06:33:55.242Z,1.17
2023-02-25T06:36:24.453Z,1.17
2023-02-25T06:38:52.941Z,1.18
2023-02-25T06:41:22.565Z,1.21
2023-02-25T06:43:52.510Z,1.23
2023-02-25T06:46:23.961Z,1.26
2023-02-25T06:48:53.311Z,1.28
2023-02-25T06:51:22.072Z,1.30
2023-02-25T06:53:51.203Z,1.30
2023-02-25T06:56:20.398Z,1.32
2023-02-25T06:58:49.034Z,1.37
2023-02-25T07:01:17.734Z,1.40
2023-02-25T07:03:46.254Z,1.42
2023-02-25T07:06:16.054Z,1.42
2023-02-25T07:08:45.172Z,1.43
2023-02-25T07:11:19.308Z,1.46
2023-02-25T07:13:49.321Z,1.50
2023-02-25T07:16:18.123Z,1.51
2023-02-25T07:18:47.126Z,1.52
2023-02-25T07:21:16.098Z,1.54
2023-02-25T07:23:44.678Z,1.56
2023-02-25T07:26:14.361Z,1.65
2023-02-25T07:28:43.083Z,1.72
2023-02-25T07:31:14.559Z,1.82
2023-02-25T07:33:43.380Z,1.89
2023-02-25T07:36:12.597Z,1.97
2023-02-25T07:38:59.758Z,2.08
2023-02-25T07:41:33.739Z,2.15
2023-02-25T07:44:05.390Z,2.24
2023-02-25T07:46:34.345Z,2.29
2023-02-25T07:49:03.776Z,2.31
2023-02-25T07:51:31.944Z,2.30
2023-02-25T07:54:00.643Z,2.29
2023-02-25T07:56:30.168Z,2.24
2023-02-25T07:58:58.311Z,2.21
2023-02-25T08:01:29.035Z,2.16
2023-02-25T08:04:00.116Z,2.16
2023-02-25T08:06:28.342Z,2.17
2023-02-25T08:08:56.479Z,2.21
2023-02-25T08:11:26.297Z,2.25
2023-02-25T08:13:54.655Z,2.26
2023-02-25T08:16:22.863Z,2.26
2023-02-25T08:18:53.091Z,2.28
2023-02-25T08:21:23.812Z,2.34
2023-02-25T08:23:53.493Z,2.40
2023-02-25T08:26:23.659Z,2.46
2023-02-25T08:28:52.248Z,2.55
2023-02-25T08:31:23.325Z,2.57
2023-02-25T08:33:57.100Z,2.64
2023-02-25T08:36:28.805Z,2.69
2023-02-25T08:38:58.460Z,2.79
2023-02-25T08:41:29.094Z,2.90
2023-02-25T08:44:00.279Z,3.06
2023-02-25T08:46:31.656Z,3.15
2023-02-25T08:49:01.145Z,3.27
2023-02-25T08:51:34.285Z,3.34
2023-02-25T08:54:05.169Z,3.41
2023-02-25T08:56:35.392Z,3.46
2023-02-25T08:59:04.831Z,3.49
2023-02-25T09:01:45.375Z,3.62
2023-02-25T09:04:19.453Z,3.75
2023-02-25T09:06:47.988Z,3.85
2023-02-25T09:09:18.074Z,3.93
2023-02-25T09:11:47.887Z,4.02
2023-02-25T09:14:16.269Z,4.24
2023-02-25T09:16:44.409Z,4.55
2023-02-25T09:19:15.703Z,4.93
2023-02-25T09:21:48.154Z,5.29
2023-02-25T09:24:17.624Z,5.55
2023-02-25T09:26:46.294Z,5.54
2023-02-25T09:29:15.530Z,5.38
2023-02-25T09:31:43.721Z,5.41
2023-02-25T09:34:15.263Z,5.33
2023-02-25T09:36:43.611Z,5.13
2023-02-25T09:39:12.701Z,4.95
2023-02-25T09:41:53.921Z,4.75
2023-02-25T09:44:32.634Z,4.65
2023-02-25T09:47:12.585Z,4.50
2023-02-25T09:49:48.314Z,4.41
2023-02-25T09:52:47.097Z,4.33
2023-02-25T09:55:33.346Z,4.20
2023-02-25T09:58:29.017Z,4.01
2023-02-25T10:01:06.335Z,3.77
2023-02-25T10:04:03.380Z,3.58
2023-02-25T10:06:35.968Z,3.30
2023-02-25T10:09:04.277Z,3.10
2023-02-25T10:11:53.705Z,2.94
2023-02-25T10:14:43.821Z,2.87
2023-02-25T10:17:27.498Z,2.93
2023-02-25T10:20:34.928Z,3.00
2023-02-25T10:23:56.658Z,3.17
2023-02-25T10:26:36.661Z,3.38
2023-02-25T10:29:08.258Z,3.47
2023-02-25T10:31:36.700Z,3.55
2023-02-25T10:34:27.770Z,3.58
2023-02-25T10:37:00.175Z,3.68
2023-02-25T10:39:29.210Z,3.72
2023-02-25T10:41:57.986Z,3.75
2023-02-25T10:44:26.549Z,3.66
2023-02-25T10:47:00.490Z,3.54
2023-02-25T10:49:30.700Z,3.46
2023-02-25T10:52:17.645Z,3.53
2023-02-25T10:54:48.797Z,3.74
2023-02-25T10:57:26.327Z,3.77
2023-02-25T11:04:39.522Z,3.73
2023-02-25T11:07:35.002Z,3.69
2023-02-25T11:10:21.248Z,3.63
2023-02-25T11:12:54.681Z,3.61
2023-02-25T11:15:37.837Z,3.55
2023-02-25T11:18:29.655Z,3.54
2023-02-25T11:21:01.560Z,3.66
2023-02-25T11:23:38.560Z,3.74
2023-02-25T11:26:08.304Z,3.80
2023-02-25T11:28:43.730Z,3.90
2023-02-25T11:31:22.592Z,3.96
2023-02-25T11:33:57.482Z,3.99
2023-02-25T11:36:31.704Z,3.95
2023-02-25T11:39:15.142Z,3.94
2023-02-25T11:41:49.589Z,3.86
2023-02-25T11:44:38.935Z,3.89
2023-02-25T11:47:28.761Z,3.97
2023-02-25T11:50:30.847Z,4.01
2023-02-25T11:52:58.705Z,3.93
2023-02-25T11:55:50.278Z,3.83
2023-02-25T11:58:31.367Z,3.71
2023-02-25T12:01:02.288Z,3.48
2023-02-25T12:03:39.263Z,3.28
2023-02-25T12:06:20.096Z,3.01
2023-02-25T12:09:10.807Z,2.60
2023-02-25T12:12:10.035Z,2.22
2023-02-25T12:15:15.046Z,2.06
2023-02-25T12:18:10.819Z,2.15
2023-02-25T12:21:00.500Z,2.44
2023-02-25T12:23:40.532Z,2.75
2023-02-25T12:26:31.823Z,3.11
2023-02-25T12:29:16.393Z,3.47
2023-02-25T12:32:11.626Z,3.83
2023-02-25T12:35:01.526Z,4.16
2023-02-25T12:37:41.515Z,4.31
2023-02-25T12:40:31.189Z,4.33
2023-02-25T12:43:06.847Z,4.34
2023-02-25T12:46:23.047Z,4.25
2023-02-25T12:49:03.801Z,4.17
2023-02-25T12:51:54.323Z,4.06
2023-02-25T12:54:40.860Z,4.08
2023-02-25T12:57:18.129Z,4.06
2023-02-25T13:00:09.363Z,4.15
2023-02-25T13:02:55.627Z,4.19
2023-02-25T13:05:36.924Z,4.28
2023-02-25T13:08:45.367Z,4.42
2023-02-25T13:11:20.755Z,4.48
2023-02-25T13:14:17.685Z,4.50
2023-02-25T13:17:10.619Z,4.51
2023-02-25T13:20:00.303Z,4.41
2023-02-25T13:22:31.663Z,4.13
2023-02-25T13:25:11.384Z,3.74
2023-02-25T13:27:52.766Z,3.29
2023-02-25T13:30:24.452Z,3.07
2023-02-25T13:33:14.185Z,2.83
2023-02-25T13:36:02.707Z,2.56
2023-02-25T13:38:57.877Z,2.46
2023-02-25T13:41:50.228Z,2.44
2023-02-25T13:45:01.602Z,2.45
2023-02-25T13:47:47.407Z,2.46
2023-02-25T13:50:24.200Z,2.52
2023-02-25T13:53:06.152Z,2.53
2023-02-25T13:56:03.037Z,2.55
2023-02-25T13:58:55.799Z,2.54
2023-02-25T14:01:38.575Z,2.52
2023-02-25T14:04:45.953Z,2.45
2023-02-25T14:07:32.358Z,2.40
2023-02-25T14:10:24.491Z,2.37
2023-02-25T14:13:11.354Z,2.36
2023-02-25T14:16:17.529Z,2.43
2023-02-25T14:18:54.380Z,2.44
2023-02-25T14:21:22.527Z,2.47
2023-02-25T14:23:56.537Z,2.48
2023-02-25T14:26:38.334Z,2.47
2023-02-25T14:29:18.450Z,2.48
2023-02-25T14:31:49.409Z,2.45
2023-02-25T14:34:33.086Z,2.40
2023-02-25T14:37:16.057Z,2.34
2023-02-25T14:39:51.647Z,2.30
2023-02-25T14:42:38.145Z,2.29
2023-02-25T14:45:09.151Z,2.31
2023-02-25T14:48:01.332Z,2.26
2023-02-25T14:50:32.580Z,2.25
2023-02-25T14:53:47.211Z,2.23
2023-02-25T14:56:47.515Z,2.23
2023-02-25T14:59:43.068Z,2.29
2023-02-25T15:02:11.065Z,2.31
2023-02-25T15:04:58.111Z,2.29
2023-02-25T15:07:47.963Z,2.27
2023-02-25T15:10:34.559Z,2.24
2023-02-25T15:13:43.289Z,2.17
2023-02-25T15:16:45.521Z,2.10
2023-02-25T15:19:59.756Z,2.07
2023-02-25T15:22:33.115Z,2.01
2023-02-25T15:25:19.622Z,1.99
2023-02-25T15:28:00.267Z,2.00
2023-02-25T15:31:03.214Z,1.99
2023-02-25T15:33:41.436Z,2.00
2023-02-25T15:36:15.456Z,2.01
2023-02-25T15:38:50.576Z,2.02
2023-02-25T15:41:27.733Z,2.00
2023-02-25T15:44:02.738Z,1.98
2023-02-25T15:46:51.211Z,1.98
2023-02-25T15:49:38.619Z,1.98
2023-02-25T15:52:09.647Z,1.97
2023-02-25T15:54:48.215Z,1.96
2023-02-25T15:57:21.754Z,1.95
2023-02-25T15:59:55.427Z,1.92
2023-02-25T16:02:32.060Z,1.93
2023-02-25T16:05:18.764Z,1.92
2023-02-25T16:08:07.190Z,1.91
2023-02-25T16:10:44.945Z,1.89
2023-02-25T16:13:16.488Z,1.88
2023-02-25T16:15:49.453Z,1.88
2023-02-25T16:18:24.126Z,1.88
2023-02-25T16:20:58.309Z,1.88
2023-02-25T16:23:28.649Z,1.85
2023-02-25T16:26:08.451Z,1.86
2023-02-25T16:28:36.353Z,1.86
2023-02-25T16:31:24.987Z,1.86
2023-02-25T16:33:57.744Z,1.86
2023-02-25T16:36:49.913Z,1.85
2023-02-25T16:39:27.578Z,1.84
2023-02-25T16:41:55.965Z,1.85
2023-02-25T16:44:33.007Z,1.84
2023-02-25T16:47:01.252Z,1.84
2023-02-25T16:49:38.740Z,1.86
2023-02-25T16:52:08.217Z,1.86
2023-02-25T16:54:40.511Z,1.86
2023-02-25T16:57:20.430Z,1.89
2023-02-25T16:59:50.798Z,1.88
2023-02-25T17:02:18.779Z,1.89
2023-02-25T17:04:53.134Z,1.89
2023-02-25T17:07:30.320Z,1.89
2023-02-25T17:10:01.965Z,1.88
2023-02-25T17:12:35.793Z,1.90
2023-02-25T17:15:09.570Z,1.90
2023-02-25T17:17:41.474Z,1.91
2023-02-25T17:20:18.182Z,1.89
2023-02-25T17:22:46.285Z,1.89
2023-02-25T17:25:16.284Z,1.89
2023-02-25T17:27:47.826Z,1.88
2023-02-25T17:30:36.293Z,1.89
2023-02-25T17:33:05.478Z,1.89
2023-02-25T17:35:35.758Z,1.91
2023-02-25T17:38:04.730Z,1.89
2023-02-25T17:40:33.279Z,1.89
2023-02-25T17:43:19.452Z,1.85
2023-02-25T17:45:53.412Z,1.79
2023-02-25T17:48:33.207Z,1.73
2023-02-25T17:51:07.865Z,1.69
2023-02-25T17:53:42.053Z,1.65
2023-02-25T17:56:22.729Z,1.60
2023-02-25T17:58:53.012Z,1.54
2023-02-25T18:01:25.678Z,1.50
2023-02-25T18:03:53.923Z,1.50
2023-02-25T18:06:30.902Z,1.51
2023-02-25T18:09:02.798Z,1.54
2023-02-25T18:11:32.982Z,1.56
2023-02-25T18:14:23.176Z,1.58
2023-02-25T18:16:53.712Z,1.60
2023-02-25T18:19:32.815Z,1.62
2023-02-25T18:22:00.886Z,1.65
2023-02-25T18:24:33.416Z,1.66
2023-02-25T18:27:19.718Z,1.69
2023-02-25T18:29:48.505Z,1.71
2023-02-25T18:32:16.634Z,1.76
2023-02-25T18:34:44.723Z,1.78
2023-02-25T18:37:18.211Z,1.80
2023-02-25T18:39:47.630Z,1.81
2023-02-25T18:42:17.801Z,1.81
2023-02-25T18:44:46.693Z,1.82
2023-02-25T18:47:16.704Z,1.85
2023-02-25T18:49:45.507Z,1.85
2023-02-25T18:52:25.296Z,1.84
2023-02-25T18:54:53.112Z,1.83
2023-02-25T18:57:24.948Z,1.84
2023-02-25T18:59:53.385Z,1.83
2023-02-25T19:04:53.613Z,1.82
2023-02-25T19:07:32.837Z,1.77
2023-02-25T19:10:02.037Z,1.72
2023-02-25T19:12:32.065Z,1.70
2023-02-25T19:15:02.999Z,1.69
2023-02-25T19:17:31.343Z,1.68
2023-02-25T19:19:59.601Z,1.64
2023-02-25T19:22:27.570Z,1.62
2023-02-25T19:24:56.823Z,1.61
2023-02-25T19:27:28.394Z,1.58
2023-02-25T19:29:59.019Z,1.57
2023-02-25T19:32:26.988Z,1.57
2023-02-25T19:34:54.982Z,1.55
2023-02-25T19:37:23.081Z,1.54
2023-02-25T19:39:51.131Z,1.53
2023-02-25T19:42:19.042Z,1.53
2023-02-25T19:44:46.955Z,1.52
2023-02-25T19:47:14.827Z,1.50
2023-02-25T19:49:42.640Z,1.49
2023-02-25T19:52:10.514Z,1.48
2023-02-25T19:54:38.805Z,1.49
2023-02-25T19:57:06.955Z,1.49
2023-02-25T19:59:34.900Z,1.49
2023-02-25T20:02:03.188Z,1.48
2023-02-25T20:04:31.423Z,1.48
2023-02-25T20:06:59.453Z,1.49
2023-02-25T20:09:27.381Z,1.47
2023-02-25T20:11:56.005Z,1.46
2023-02-25T20:14:27.992Z,1.45
2023-02-25T20:16:57.169Z,1.44
2023-02-25T20:19:27.965Z,1.43
2023-02-25T20:21:57.084Z,1.44
2023-02-25T20:24:25.605Z,1.43
2023-02-25T20:26:53.774Z,1.41
2023-02-25T20:29:23.039Z,1.39
2023-02-25T20:31:51.118Z,1.38
2023-02-25T20:34:22.050Z,1.37
2023-02-25T20:36:58.915Z,1.37
2023-02-25T20:39:39.165Z,1.35
2023-02-25T20:42:14.264Z,1.34
2023-02-25T20:44:42.268Z,1.32
2023-02-25T20:47:18.849Z,1.28
2023-02-25T20:49:47.713Z,1.25
2023-02-25T20:52:16.215Z,1.22
2023-02-25T20:54:44.345Z,1.20
2023-02-25T20:57:15.838Z,1.17
2023-02-25T20:59:43.767Z,1.15
2023-02-25T21:02:12.241Z,1.11
2023-02-25T21:04:40.370Z,1.09
2023-02-25T21:07:09.262Z,1.06
2023-02-25T21:09:37.387Z,1.05
2023-02-25T21:12:06.253Z,1.02
2023-02-25T21:14:34.578Z,1.02
2023-02-25T21:17:02.543Z,1.00
2023-02-25T21:19:30.434Z,1.01
2023-02-25T21:21:58.557Z,0.99
2023-02-25T21:24:29.041Z,0.99
2023-02-25T21:26:56.933Z,0.97
2023-02-25T21:29:24.855Z,0.94
2023-02-25T21:31:52.937Z,0.91
2023-02-25T21:34:21.370Z,0.89
2023-02-25T21:36:49.392Z,0.89
2023-02-25T21:39:17.375Z,0.86
2023-02-25T21:41:45.396Z,0.83
2023-02-25T21:44:13.762Z,0.83
2023-02-25T21:46:41.893Z,0.80
2023-02-25T21:49:10.794Z,0.79
2023-02-25T21:51:40.209Z,0.77
2023-02-25T21:54:09.077Z,0.77
2023-02-25T21:56:37.020Z,0.75
2023-02-25T21:59:05.545Z,0.75
2023-02-25T22:01:38.625Z,0.77
2023-02-25T22:04:08.559Z,0.72
2023-02-25T22:06:37.330Z,0.71
2023-02-25T22:09:06.929Z,0.69
2023-02-25T22:11:36.703Z,0.67
2023-02-25T22:14:06.696Z,0.66
2023-02-25T22:16:35.769Z,0.65
2023-02-25T22:19:04.055Z,0.64
2023-02-25T22:21:33.573Z,0.64
2023-02-25T22:24:03.466Z,0.63
2023-02-25T22:26:33.845Z,0.59
2023-02-25T22:29:06.251Z,0.57
2023-02-25T22:31:35.159Z,0.59
2023-02-25T22:34:04.014Z,0.57
2023-02-25T22:36:32.055Z,0.57
2023-02-25T22:39:03.423Z,0.55
2023-02-25T22:41:31.759Z,0.53
2023-02-25T22:44:01.256Z,0.53
2023-02-25T22:46:36.177Z,0.51
2023-02-25T22:49:05.997Z,0.47
2023-02-25T22:51:36.787Z,0.46
2023-02-25T22:54:05.238Z,0.41
2023-02-25T22:56:33.125Z,0.38
2023-02-25T22:59:01.183Z,0.35
2023-02-25T23:01:29.501Z,0.30
2023-02-25T23:03:57.740Z,0.26
2023-02-25T23:06:42.273Z,0.27
2023-02-25T23:09:13.289Z,0.23
2023-02-25T23:11:42.413Z,0.22
2023-02-25T23:14:12.911Z,0.21
2023-02-25T23:16:44.723Z,0.18
2023-02-25T23:19:15.995Z,0.16
2023-02-25T23:21:44.436Z,0.11
2023-02-25T23:24:16.355Z,0.09
2023-02-25T23:26:47.545Z,0.06
2023-02-25T23:29:15.534Z,0.04
2023-02-25T23:31:45.953Z,0.02
2023-02-25T23:34:18.721Z,0.02
2023-02-25T23:36:46.607Z,0.01
2023-02-25T23:39:15.441Z,0.01
2023-02-25T23:41:44.291Z,-0.00
2023-02-25T23:44:13.313Z,-0.01
2023-02-25T23:46:45.209Z,-0.03
2023-02-25T23:49:14.247Z,-0.05
2023-02-25T23:51:44.730Z,-0.08
2023-02-25T23:54:15.840Z,-0.10
2023-02-25T23:56:44.959Z,-0.12
2023-02-25T23:59:13.292Z,-0.12
